Home > Products > Valid Products > MTR

000
SAUS45 KABQ 201554
MTRTCS
METAR KTCS 201553Z AUTO VRB06KT 10SM CLR 16/08 A3016 RMK AO2 SLP163
T01560078





000
SAUS45 KABQ 201554
MTRRTN
METAR KRTN 201553Z AUTO 02008KT 10SM -RA FEW026 OVC036 11/06 A3012
RMK AO2 RAB09E28B53 SLP149 P0000 T01060061





000
SAUS45 KABQ 201554
MTRCQC
METAR KCQC 201553Z AUTO 28014G20KT 10SM FEW100 11/05 A3015 RMK AO2
SLP158 T01110050





000
SAUS45 KABQ 201552
MTRABQ
METAR KABQ 201552Z 22004KT 10SM FEW040 FEW120 BKN250 14/06 A3017 RMK
AO2 SLP170 MTN TOP OBSC E T01390056





000
SAUS45 KABQ 201454
MTRRTN
METAR KRTN 201453Z AUTO 28004KT 10SM OVC039 11/07 A3010 RMK AO2
RAE1355 SLP144 P0000 60000 T01060067 51010





000
SAUS45 KABQ 201454
MTRTCS
METAR KTCS 201453Z AUTO 18005KT 10SM CLR 13/07 A3016 RMK AO2 SLP165
T01330072 53010





000
SAUS45 KABQ 201454
MTRCQC
METAR KCQC 201453Z AUTO 28015KT 10SM FEW080 OVC100 09/06 A3014 RMK
AO2 SLP158 T00940056 50009





000
SAUS45 KABQ 201452
MTRABQ
METAR KABQ 201452Z 18006KT 10SM FEW035 FEW120 BKN250 12/07 A3016 RMK
AO2 SLP175 T01220072 51010





000
SAUS45 KABQ 201354
MTRTCS
METAR KTCS 201353Z AUTO 26004KT 10SM CLR 12/07 A3015 RMK AO2 SLP165
T01220072





000
SAUS45 KABQ 201354
MTRCQC
METAR KCQC 201353Z AUTO 29010KT 10SM OVC080 07/05 A3014 RMK AO2
SLP162 T00670050 $





000
SAUS45 KABQ 201354
MTRRTN
METAR KRTN 201353Z AUTO 28006KT 10SM -RA OVC045 09/06 A3009 RMK AO2
SLP143 P0000 T00890061





000
SAUS45 KABQ 201352
MTRABQ
METAR KABQ 201352Z 14005KT 10SM FEW030 FEW050 SCT110 BKN250 09/07
A3015 RMK AO2 SLP173 MTNS OBSC E-SE SCSL SE ACSL SE T00890067





000
SAUS45 KABQ 201254
MTRRTN
METAR KRTN 201253Z AUTO 26009KT 10SM -RA OVC046 08/06 A3008 RMK AO2
RAB1157 SLP138 P0000 T00830056





000
SAUS45 KABQ 201254
MTRCQC
METAR KCQC 201253Z AUTO 30010KT 10SM OVC070 06/04 A3013 RMK AO2
SLP159 T00610044 $





000
SAUS45 KABQ 201254
MTRTCS
METAR KTCS 201253Z AUTO 18005KT 10SM OVC100 11/08 A3013 RMK AO2
SLP163 T01060083





000
SAUS45 KABQ 201252
MTRABQ
METAR KABQ 201252Z 12005KT 10SM FEW070 SCT110 BKN150 08/06 A3014 RMK
AO2 SLP166 T00780061 $





000
SAUS45 KABQ 201158 COR
MTRCQC
METAR KCQC 201153Z AUTO 30013KT 10SM BKN080 OVC095 06/04 A3011 RMK
AO2 SLP149 70024 T00610044 10072 20056 55001 $





000
SAUS45 KABQ 201156 COR
MTRCQC
METAR KCQC 201153Z AUTO 30013KT 10SM BKN080 OVC095 06/04 A3011 RMK
AO2 SLP149 70024 T00610044 10072 20056 55001 $





000
SAUS45 KABQ 201155 COR
MTRCQC
METAR KCQC 201153Z AUTO 30013KT 10SM BKN080 OVC095 06/04 A3011 RMK
AO2 SLP149 70024 T00610044 10072 20056 55001 $





000
SAUS45 KABQ 201154
MTRRTN
METAR KRTN 201153Z AUTO 27006KT 10SM FEW060 OVC100 08/06 A3006 RMK
AO2 SLP131 60001 70001 T00780061 10106 20078 52003





000
SAUS45 KABQ 201154
MTRTCS
METAR KTCS 201153Z AUTO 00000KT 10SM OVC080 11/08 A3012 RMK AO2
SLP151 60000 70027 T01060083 10117 20106 53003





000
SAUS45 KABQ 201154
MTRCQC
METAR KCQC 201153Z AUTO 30013KT 10SM BKN080 OVC095 06/04 A3011 RMK
AO2 SLP149 70024 T00610044 10072 20056 55001 $





000
SAUS45 KABQ 201152
MTRABQ
METAR KABQ 201152Z 13006KT 10SM FEW070 BKN110 BKN250 08/06 A3012 RMK
AO2 SLP159 60000 70001 T00830061 10111 20083 53001 $





000
SAUS45 KABQ 201055
MTRTCS
METAR KTCS 201053Z AUTO 16005KT 10SM OVC075 11/09 A3011 RMK AO2
RAE0957 SLP148 P0000 T01060089





000
SAUS45 KABQ 201054
MTRCQC
METAR KCQC 201053Z AUTO 30011KT 10SM FEW075 OVC090 06/04 A3010 RMK
AO2 SLP148 T00610044 $





000
SAUS45 KABQ 201054
MTRRTN
METAR KRTN 201053Z AUTO 09003KT 10SM OVC050 11/05 A3006 RMK AO2
SLP120 T01060050





000
SAUS45 KABQ 201052
MTRABQ
METAR KABQ 201052Z 12004KT 10SM FEW070 SCT100 SCT250 09/07 A3011 RMK
AO2 SLP154 T00890067 $





000
SAUS45 KABQ 200958 COR
MTRCQC
METAR KCQC 200953Z AUTO 30010KT 10SM SCT060 BKN080 OVC090 06/04
A3011 RMK AO2 SLP156 T00610044 $





000
SAUS45 KABQ 200954
MTRRTN
METAR KRTN 200953Z AUTO 35006G16KT 10SM BKN050 BKN095 10/05 A3006
RMK AO2 SLP114 T01000050





000
SAUS45 KABQ 200954
MTRTCS
METAR KTCS 200953Z AUTO 18007KT 10SM -RA BKN070 OVC080 11/09 A3011
RMK AO2 RAB32 SLP145 P0000 T01110094





000
SAUS45 KABQ 200952
MTRABQ
METAR KABQ 200952Z 15003KT 10SM FEW050 SCT080 SCT150 BKN250 09/07
A3012 RMK AO2 SLP157 MTNS OBSC NE-E T00890072 $





000
SAUS45 KABQ 200854
MTRCQC
METAR KCQC 200853Z AUTO 30010KT 10SM SCT075 06/04 A3011 RMK AO2
SLP160 T00610044 56008 $





000
SAUS45 KABQ 200854
MTRRTN
METAR KRTN 200853Z AUTO 35009KT 10SM SCT100 10/06 A3005 RMK AO2
SLP106 60001 T01000056 58011





000
SAUS45 KABQ 200854
MTRTCS
METAR KTCS 200853Z AUTO 00000KT 10SM OVC100 11/09 A3011 RMK AO2
SLP145 T01110089 58002





000
SAUS45 KABQ 200852
MTRABQ
METAR KABQ 200852Z 12006KT 10SM FEW050 FEW090 SCT150 OVC250 09/08
A3012 RMK AO2 SLP161 VCSH NE-E MTNS OBSC NE-E 60000 T00890078 58006
$





000
SAUS45 KABQ 200758 COR
MTRCQC
METAR KCQC 200753Z AUTO 28012KT 10SM FEW047 SCT070 BKN095 06/04
A3012 RMK AO2 SLP163 T00610044 $





000
SAUS45 KABQ 200756 COR
MTRCQC
METAR KCQC 200753Z AUTO 28012KT 10SM FEW047 SCT070 BKN095 06/04
A3012 RMK AO2 SLP163 T00610044 $





000
SAUS45 KABQ 200755 COR
MTRCQC
METAR KCQC 200753Z AUTO 28012KT 10SM FEW047 SCT070 BKN095 06/04
A3012 RMK AO2 SLP163 T00610044 $





000
SAUS45 KABQ 200755
MTRRTN
METAR KRTN 200753Z AUTO 33003KT 10SM OVC100 09/07 A3007 RMK AO2
RAE03 SLP109 P0000 T00940067





000
SAUS45 KABQ 200754
MTRTCS
METAR KTCS 200753Z AUTO 11004KT 10SM SCT080 OVC095 11/09 A3013 RMK
AO2 SLP153 T01110089





000
SAUS45 KABQ 200754
MTRCQC
METAR KCQC 200753Z AUTO 28012KT 10SM FEW047 SCT070 BKN095 06/04
A3012 RMK AO2 SLP163 T00610044 $





000
SAUS45 KABQ 200752
MTRABQ
METAR KABQ 200752Z 14005KT 10SM FEW040 SCT060 BKN090 OVC130 10/08
A3013 RMK AO2 RAB0658E14 SLP165 SHRA DSNT SE MTNS OBSC SE P0000
T01000078 $





000
SAUS45 KABQ 200654
MTRRTN
METAR KRTN 200653Z AUTO 00000KT 10SM -RA OVC060 10/07 A3010 RMK AO2
RAB07 SLP119 P0001 T01000067 402220044





000
SAUS45 KABQ 200654
MTRTCS
METAR KTCS 200653Z AUTO 15004KT 10SM OVC110 11/09 A3012 RMK AO2
SLP151 T01110089 401890106





000
SAUS45 KABQ 200654
MTRCQC
METAR KCQC 200653Z AUTO 29009KT 10SM CLR 06/04 A3013 RMK AO2 SLP151
T00610039 401390056 $





000
SAUS45 KABQ 200653
MTRABQ
METAR KABQ 200652Z 14003KT 10SM FEW045 SCT060 BKN100 OVC150 11/07
A3014 RMK AO2 RAE49 SLP164 MTNS OBSC E P0000 T01110072 401610089 $





000
SAUS45 KABQ 200558 COR
MTRCQC
METAR KCQC 200553Z AUTO 28009KT 10SM FEW050 BKN075 07/05 A3014 RMK
AO2 SLP152 60006 T00720050 10111 20061 58002 $





000
SAUS45 KABQ 200556 COR
MTRCQC
METAR KCQC 200553Z AUTO 28009KT 10SM FEW050 BKN075 07/05 A3014 RMK
AO2 SLP152 60006 T00720050 10111 20061 58002 $





000
SAUS45 KABQ 200555 COR
MTRCQC
METAR KCQC 200553Z AUTO 28009KT 10SM FEW050 BKN075 07/05 A3014 RMK
AO2 SLP152 60006 T00720050 10111 20061 58002 $





000
SAUS45 KABQ 200554
MTRRTN
METAR KRTN 200553Z AUTO 22003KT 10SM OVC070 10/06 A3009 RMK AO2
SLP122 T01000056 10139 20094 53002





000
SAUS45 KABQ 200554
MTRCQC
METAR KCQC 200553Z AUTO 28009KT 10SM FEW050 BKN075 07/05 A3014 RMK
AO2 SLP152 60006 T00720050 10111 20061 58002 $





000
SAUS45 KABQ 200554
MTRTCS
METAR KTCS 200553Z AUTO 27005KT 10SM FEW120 11/09 A3012 RMK AO2
SLP153 60006 T01110089 10167 20111 50003





000
SAUS45 KABQ 200553
MTRABQ
METAR KABQ 200552Z 21004KT 10SM -RA FEW050 BKN075 BKN100 11/07 A3014
RMK AO2 RAB43 SLP162 MTNS OBSC NE P0000 60001 T01110072 10156 20100
53001 $





000
SAUS45 KABQ 200455
MTRRTN
METAR KRTN 200453Z AUTO 21005KT 10SM OVC110 10/06 A3009 RMK AO2
SLP122 T01000056





000
SAUS45 KABQ 200454
MTRCQC
METAR KCQC 200453Z AUTO 24007KT 10SM CLR 07/04 A3015 RMK AO2 SLP164
T00670044 $





000
SAUS45 KABQ 200454
MTRTCS
METAR KTCS 200453Z AUTO 35006KT 10SM BKN110 13/08 A3012 RMK AO2
SLP156 T01280078





000
SAUS45 KABQ 200453
MTRABQ
METAR KABQ 200452Z 24007KT 10SM SCT070 BKN100 11/07 A3012 RMK AO2
SLP159 T01110072 $





000
SAUS45 KABQ 200358 COR
MTRCQC
METAR KCQC 200353Z AUTO 25006KT 10SM FEW048 BKN070 OVC080 07/06
A3015 RMK AO2 SLP154 T00720056 $





000
SAUS45 KABQ 200356 COR
MTRCQC
METAR KCQC 200353Z AUTO 25006KT 10SM FEW048 BKN070 OVC080 07/06
A3015 RMK AO2 SLP154 T00720056 $





000
SAUS45 KABQ 200355
MTRCQC
METAR KCQC 200353Z AUTO 25006KT 10SM FEW048 BKN070 OVC080 07/06
A3015 RMK AO2 SLP154 T00720056 $





000
SAUS45 KABQ 200354
MTRTCS
METAR KTCS 200353Z AUTO 28006KT 10SM SCT070 OVC085 12/09 A3012 RMK
AO2 RAB16E36 SLP157 P0000 T01220089





000
SAUS45 KABQ 200354
MTRRTN
METAR KRTN 200353Z AUTO 21005KT 10SM BKN100 10/06 A3009 RMK AO2
SLP128 T01000061





000
SAUS45 KABQ 200353
MTRABQ
METAR KABQ 200352Z 08005KT 10SM FEW045 BKN070 BKN120 12/07 A3012 RMK
AO2 RAB28E42 SLP156 MTNS OBSC NE-SE VCSH NE-SE P0000 T01220072 $





000
SAUS45 KABQ 200259 COR
MTRCQC
METAR KCQC 200253Z AUTO 31009KT 10SM OVC040 08/06 A3015 RMK AO2
RAE39 SLP155 P0006 60006 T00780061 53012 $





000
SAUS45 KABQ 200258 COR
MTRCQC
METAR KCQC 200253Z AUTO 31009KT 10SM OVC040 08/06 A3015 RMK AO2
RAE39 SLP155 P0006 60006 T00780061 53012 $





000
SAUS45 KABQ 200256 COR
MTRCQC
METAR KCQC 200253Z AUTO 31009KT 10SM OVC040 08/06 A3015 RMK AO2
RAE39 SLP155 P0006 60006 T00780061 53012 $





000
SAUS45 KABQ 200255 COR
MTRCQC
METAR KCQC 200253Z AUTO 31009KT 10SM OVC040 08/06 A3015 RMK AO2
RAE39 SLP155 P0006 60006 T00780061 53012 $





000
SAUS45 KABQ 200254
MTRCQC
METAR KCQC 200253Z AUTO 31009KT 10SM OVC040 08/06 A3015 RMK AO2
RAE39 SLP155 P0006 60006 T00780061 53012 $





000
SAUS45 KABQ 200254
MTRTCS
METAR KTCS 200253Z AUTO 30006KT 10SM FEW075 OVC110 13/08 A3011 RMK
AO2 WSHFT 0156 RAE10 SLP150 P0000 60006 T01280078 53014





000
SAUS45 KABQ 200254
MTRRTN
METAR KRTN 200253Z AUTO 10004KT 10SM OVC110 11/07 A3009 RMK AO2
SLP136 T01060067 53006





000
SAUS45 KABQ 200253
MTRABQ
METAR KABQ 200252Z 06011KT 10SM FEW040 BKN060 BKN100 10/08 A3013 RMK
AO2 RAE35 SLP163 MTNS OBSC NE-SE VCSH NE-SE-S P0001 60001 T01000078
53017 $





000
SAUS45 KABQ 200217
MTRTCS
SPECI KTCS 200216Z AUTO 27010KT 10SM FEW060 OVC090 12/09 A3009 RMK
AO2 WSHFT 0156 RAE10 P0000 T01170089





000
SAUS45 KABQ 200158 COR
MTRCQC
METAR KCQC 200153Z AUTO 09003KT 10SM -RA BKN033 OVC043 09/06 A3014
RMK AO2 RAB39 SLP155 P0000 T00940061 $





000
SAUS45 KABQ 200156 COR
MTRCQC
METAR KCQC 200153Z AUTO 09003KT 10SM -RA BKN033 OVC043 09/06 A3014
RMK AO2 RAB39 SLP155 P0000 T00940061 $





000
SAUS45 KABQ 200155 COR
MTRCQC
METAR KCQC 200153Z AUTO 09003KT 10SM -RA BKN033 OVC043 09/06 A3014
RMK AO2 RAB39 SLP155 P0000 T00940061 $





000
SAUS45 KABQ 200154
MTRTCS
METAR KTCS 200153Z AUTO 20005KT 10SM -RA SCT060 SCT080 OVC100 12/09
A3008 RMK AO2 WSHFT 0110 LTG DSNT NW SLP141 P0003 T01170094





000
SAUS45 KABQ 200154
MTRCQC
METAR KCQC 200153Z AUTO 09003KT 10SM -RA BKN033 OVC043 09/06 A3014
RMK AO2 RAB39 SLP155 P0000 T00940061 $





000
SAUS45 KABQ 200154
MTRRTN
METAR KRTN 200153Z AUTO 35006KT 10SM CLR 11/07 A3007 RMK AO2 SLP135
T01110067





000
SAUS45 KABQ 200153
MTRABQ
METAR KABQ 200152Z 06011KT 10SM -RA FEW025 FEW040 BKN080 OVC150
13/07 A3012 RMK AO2 WSHFT 0114 RAB36 SLP156 MTNS OBSC NE-SE P0000
T01330067 $





000
SAUS45 KABQ 200132
MTRTCS
SPECI KTCS 200130Z AUTO 27008KT 10SM -RA BKN065 OVC085 11/09 A3009
RMK AO2 WSHFT 0110 LTG DSNT N AND NW P0001 T01110094





000
SAUS45 KABQ 200130
MTRABQ
SPECI KABQ 200129Z 06011KT 10SM FEW025 FEW040 BKN075 BKN150 14/07
A3011 RMK AO2 WSHFT 0114 MTNS OBSC NE AND SE VCSH NE AND SE
T01390067 $





000
SAUS45 KABQ 200120
MTRTCS
SPECI KTCS 200119Z AUTO 25010KT 10SM -RA FEW043 BKN070 OVC085 12/08
A3009 RMK AO2 WSHFT 0059 LTG DSNT NW-NE P0001 T01170083





000
SAUS45 KABQ 200054
MTRRTN
METAR KRTN 200053Z AUTO 19011KT 10SM CLR 12/07 A3006 RMK AO2 SLP139
T01220067





000
SAUS45 KABQ 200054
MTRCQC
METAR KCQC 200053Z AUTO 10003KT 10SM OVC049 11/06 A3011 RMK AO2
SLP150 T01060056 $





000
SAUS45 KABQ 200054
MTRTCS
METAR KTCS 200053Z AUTO 16015G23KT 4SM RA FEW037 BKN050 OVC065 12/09
A3007 RMK AO2 PK WND 18033/0034 LTG DSNT W-N RAB09 SLP141 P0003
T01170089





000
SAUS45 KABQ 200053
MTRABQ
METAR KABQ 200052Z 00000KT 10SM FEW025 FEW040 BKN075 BKN150 15/05
A3009 RMK AO2 SLP146 MTNS OBSC NE AND SE VCSH NE AND SE T01500050 $





000
SAUS45 KABQ 192358 COR
MTRCQC
METAR KCQC 192353Z AUTO 07004KT 10SM CLR 11/06 A3011 RMK AO2 SLP149
60018 T01060056 10133 20067 55017 $





000
SAUS45 KABQ 192356 COR
MTRCQC
METAR KCQC 192353Z AUTO 07004KT 10SM CLR 11/06 A3011 RMK AO2 SLP149
60018 T01060056 10133 20067 55017 $





000
SAUS45 KABQ 192355 COR
MTRCQC
METAR KCQC 192353Z AUTO 07004KT 10SM CLR 11/06 A3011 RMK AO2 SLP149
60018 T01060056 10133 20067 55017 $





000
SAUS45 KABQ 192355
MTRTCS
METAR KTCS 192353Z AUTO 21012G21KT 10SM BKN080 OVC100 17/06 A3006
RMK AO2 LTG DSNT SE SLP124 60000 T01670056 10189 20139 53001





000
SAUS45 KABQ 192354
MTRCQC
METAR KCQC 192353Z AUTO 07004KT 10SM CLR 11/06 A3011 RMK AO2 SLP149
60018 T01060056 10133 20067 55017 $





000
SAUS45 KABQ 192354
MTRRTN
METAR KRTN 192353Z AUTO 20016G24KT 10SM CLR 13/06 A3006 RMK AO2 PK
WND 20035/2256 SLP136 T01330056 10222 20133 53015





000
SAUS45 KABQ 192352
MTRABQ
METAR KABQ 192352Z 23006KT 10SM FEW035 BKN075 BKN150 BKN250 16/06
A3008 RMK AO2 SLP136 MTN TOPS OBSC NE AND SE SHRA DSNT NE AND SE AND
NW 60000 T01560056 10161 20128 55009 $





000
SAUS45 KABQ 192255
MTRCQC
METAR KCQC 192253Z AUTO 04008KT 10SM CLR 10/06 A3010 RMK AO2 RAE12
SLP147 P0000 T01000061





000
SAUS45 KABQ 192254
MTRRTN
METAR KRTN 192253Z AUTO 22026G32KT 10SM FEW032 SCT070 BKN085 15/04
A3005 RMK AO2 PK WND 20033/2223 SLP124 T01500044





000
SAUS45 KABQ 192254
MTRTCS
METAR KTCS 192253Z AUTO 15004KT 10SM BKN110 17/06 A3003 RMK AO2 LTG
DSNT SW RAB2158E15 SLP110 P0000 T01720061





000
SAUS45 KABQ 192252
MTRABQ
METAR KABQ 192252Z VRB04KT 10SM FEW030 SCT070 BKN150 BKN250 16/05
A3007 RMK AO2 SLP133 MTN TOPS OBSC NE AND SE SHRA DSNT NE AND SE AND
NW T01610050 $





000
SAUS45 KABQ 192158 COR
MTRCQC
METAR KCQC 192153Z AUTO 25003KT 10SM -RA BKN048 OVC055 08/06 A3013
RMK AO2 SLP168 P0004 T00780056





000
SAUS45 KABQ 192156 COR
MTRCQC
METAR KCQC 192153Z AUTO 25003KT 10SM -RA BKN048 OVC055 08/06 A3013
RMK AO2 SLP168 P0004 T00780056





000
SAUS45 KABQ 192155 COR
MTRCQC
METAR KCQC 192153Z AUTO 25003KT 10SM -RA BKN048 OVC055 08/06 A3013
RMK AO2 SLP168 P0004 T00780056





000
SAUS45 KABQ 192154
MTRCQC
METAR KCQC 192153Z AUTO 25003KT 10SM -RA BKN048 OVC055 08/06 A3013
RMK AO2 SLP168 P0004 T00780056





000
SAUS45 KABQ 192154
MTRRTN
METAR KRTN 192153Z AUTO 19020G31KT 10SM BKN090 OVC120 18/01 A3002
RMK AO2 PK WND 19031/2151 SLP107 T01780011





000
SAUS45 KABQ 192154
MTRTCS
METAR KTCS 192153Z AUTO 00000KT 10SM SCT070 SCT095 18/05 A3004 RMK
AO2 LTG DSNT SW SLP114 T01780050





000
SAUS45 KABQ 192152
MTRABQ
METAR KABQ 192152Z 18009KT 10SM FEW030 SCT065 BKN150 15/06 A3008 RMK
AO2 RAB26E36 SLP137 MTN TOPS OBSC NE-SE P0000 T01500061 $





000
SAUS45 KABQ 192058 COR
MTRCQC
METAR KCQC 192053Z AUTO 24011KT 10SM -RA BKN049 OVC060 07/06 A3017
RMK AO2 SLP181 P0009 60014 T00720056 50005





000
SAUS45 KABQ 192056 COR
MTRCQC
METAR KCQC 192053Z AUTO 24011KT 10SM -RA BKN049 OVC060 07/06 A3017
RMK AO2 SLP181 P0009 60014 T00720056 50005





000
SAUS45 KABQ 192055 COR
MTRCQC
METAR KCQC 192053Z AUTO 24011KT 10SM -RA BKN049 OVC060 07/06 A3017
RMK AO2 SLP181 P0009 60014 T00720056 50005





000
SAUS45 KABQ 192054
MTRTCS
METAR KTCS 192053Z AUTO 01009KT 10SM CLR 18/07 A3006 RMK AO2 LTG
DSNT SW SLP121 T01780072 58020





000
SAUS45 KABQ 192054
MTRRTN
METAR KRTN 192053Z AUTO 19015G21KT 10SM BKN120 21/M02 A3001 RMK AO2
SLP093 T02061022 56018





000
SAUS45 KABQ 192054
MTRCQC
METAR KCQC 192053Z AUTO 24011KT 10SM -RA BKN049 OVC060 07/06 A3017
RMK AO2 SLP181 P0009 60014 T00720056 50005





000
SAUS45 KABQ 192052
MTRABQ
METAR KABQ 192052Z 17012KT 10SM SCT040 BKN080 BKN200 13/06 A3011 RMK
AO2 SLP147 SHRA DSNT E 60000 T01330061 58008 $





000
SAUS45 KABQ 191954
MTRRTN
METAR KRTN 191953Z AUTO 17009KT 10SM FEW100 22/M03 A3002 RMK AO2
SLP094 T02221033





000
SAUS45 KABQ 191954
MTRCQC
METAR KCQC 191953Z AUTO 24014KT 4SM RA BR FEW007 OVC031 07/06 A3019
RMK AO2 RAB07 SLP182 P0005 T00720056





000
SAUS45 KABQ 191954
MTRTCS
METAR KTCS 191953Z AUTO 05010KT 10SM CLR 17/08 A3009 RMK AO2 SLP132
T01670083





000
SAUS45 KABQ 191952
MTRABQ
METAR KABQ 191952Z 16014KT 10SM FEW030 OVC065 13/08 A3013 RMK AO2
RAB1858E47 SLP153 VCSH E MTN TOPS OBSC NE-E P0000 T01330078 $





000
SAUS45 KABQ 191854
MTRTCS
METAR KTCS 191853Z AUTO 03006KT 10SM FEW026 SCT110 16/08 A3010 RMK
AO2 SLP137 T01610078





000
SAUS45 KABQ 191854
MTRCQC
METAR KCQC 191853Z AUTO 24004KT 10SM BKN065 BKN080 OVC090 13/02
A3015 RMK AO2 SLP148 T01280022





000
SAUS45 KABQ 191854
MTRRTN
METAR KRTN 191853Z AUTO 20010G18KT 10SM SCT090 22/M01 A3005 RMK AO2
SLP102 T02171006





000
SAUS45 KABQ 191852
MTRABQ
METAR KABQ 191852Z 19011KT 10SM SCT040 BKN085 BKN200 14/06 A3013 RMK
AO2 SLP154 SHRA DSNT E-S MTN TOPS OBSC NE AND SE T01390056 $





000
SAUS45 KABQ 191754
MTRTCS
METAR KTCS 191753Z AUTO 36009KT 10SM FEW047 SCT060 BKN110 14/08
A3013 RMK AO2 RAE45 SLP145 P0001 60021 T01390083 10144 20106 58003





000
SAUS45 KABQ 191754
MTRCQC
METAR KCQC 191753Z AUTO 27011KT 10SM FEW075 SCT095 13/04 A3015 RMK
AO2 SLP142 60000 T01280044 10139 20056 58003





000
SAUS45 KABQ 191754
MTRRTN
METAR KRTN 191753Z AUTO 20009KT 10SM CLR 20/M01 A3008 RMK AO2 SLP114
T02001006 10206 20050 56006





000
SAUS45 KABQ 191752
MTRABQ
METAR KABQ 191752Z 22005KT 10SM FEW040 SCT060 BKN110 BKN200 14/06
A3014 RMK AO2 SLP153 SHRA DSNT S 60000 T01390056 10150 20089 50001 $





000
SAUS45 KABQ 191658 COR
MTRCQC
METAR KCQC 191653Z AUTO 24017KT 10SM FEW016 BKN060 OVC100 09/06
A3019 RMK AO2 PK WND 25029/1640 RAB36E51 SLP168 P0000 T00940056





000
SAUS45 KABQ 191656 COR
MTRCQC
METAR KCQC 191653Z AUTO 24017KT 10SM FEW016 BKN060 OVC100 09/06
A3019 RMK AO2 PK WND 25029/1640 RAB36E51 SLP168 P0000 T00940056





000
SAUS45 KABQ 191655 COR
MTRCQC
METAR KCQC 191653Z AUTO 24017KT 10SM FEW016 BKN060 OVC100 09/06
A3019 RMK AO2 PK WND 25029/1640 RAB36E51 SLP168 P0000 T00940056





000
SAUS45 KABQ 191654
MTRRTN
METAR KRTN 191653Z AUTO 20016G20KT 10SM CLR 19/00 A3008 RMK AO2
SLP116 T01890000





000
SAUS45 KABQ 191654
MTRCQC
METAR KCQC 191653Z AUTO 24017KT 10SM FEW016 BKN060 OVC100 09/06
A3019 RMK AO2 PK WND 25029/1640 RAB36E51 SLP168 P0000 T00940056





000
SAUS45 KABQ 191654
MTRTCS
METAR KTCS 191653Z AUTO 29004KT 8SM -RA OVC060 11/08 A3018 RMK AO2
SLP166 P0002 T01110083





000
SAUS45 KABQ 191652
MTRABQ
METAR KABQ 191652Z 10008KT 10SM FEW035 SCT060 SCT095 BKN130 12/07
A3015 RMK AO2 PK WND 18028/1558 RAE25 PRESFR SLP161 VIRGA SHRA DSNT
SE P0000 T01170067 $





000
SAUS45 KABQ 191554
MTRRTN
METAR KRTN 191553Z AUTO 17013KT 10SM CLR 17/03 A3008 RMK AO2 SLP119
T01670028





000
SAUS45 KABQ 191554
MTRCQC
METAR KCQC 191553Z AUTO 23009KT 10SM SCT100 13/04 A3017 RMK AO2
SLP155 T01330039





000
SAUS45 KABQ 191554
MTRTCS
METAR KTCS 191553Z AUTO 30009KT 10SM -RA BKN055 OVC070 11/09 A3016
RMK AO2 RAB1454 SLP158 P0010 T01060089





000
SAUS45 KABQ 191553
MTRABQ
METAR KABQ 191552Z 18022G30KT 10SM -RA FEW060 BKN075 OVC100 12/04
A3018 RMK AO2 PK WND 17030/1545 RAB52 SLP167 MTNS OBSC SE P0000
T01170039





000
SAUS45 KABQ 191455
MTRCQC
METAR KCQC 191453Z AUTO 26003KT 10SM CLR 12/03 A3016 RMK AO2 SLP149
T01220033 50005





000
SAUS45 KABQ 191454
MTRRTN
METAR KRTN 191453Z AUTO 19004KT 10SM CLR 12/04 A3010 RMK AO2 SLP133
T01170039 50009





000
SAUS45 KABQ 191454
MTRTCS
METAR KTCS 191453Z AUTO 29015G20KT 10SM SCT060 OVC075 12/07 A3014
RMK AO2 SLP149 60008 T01220072 53017





000
SAUS45 KABQ 191453
MTRABQ
METAR KABQ 191452Z 04003KT 10SM FEW060 SCT120 BKN250 14/04 A3013 RMK
AO2 SLP142 SHRA DSNT S T01440044 51010





000
SAUS45 KABQ 191355
MTRTCS
METAR KTCS 191353Z AUTO 35004KT 10SM BKN100 12/09 A3010 RMK AO2
SLP135 T01220094





000
SAUS45 KABQ 191354
MTRRTN
METAR KRTN 191353Z AUTO 26004KT 10SM CLR 09/04 A3010 RMK AO2 SLP135
T00890044





000
SAUS45 KABQ 191354
MTRCQC
METAR KCQC 191353Z AUTO 26003KT 10SM CLR 09/04 A3017 RMK AO2 SLP153
T00940044





000
SAUS45 KABQ 191353
MTRABQ
METAR KABQ 191352Z 33004KT 10SM FEW090 SCT130 BKN210 12/03 A3013 RMK
AO2 SLP141 T01220033





000
SAUS45 KABQ 191254
MTRRTN
METAR KRTN 191253Z AUTO 00000KT 10SM FEW080 05/03 A3008 RMK AO2
SLP133 T00500028





000
SAUS45 KABQ 191254
MTRCQC
METAR KCQC 191253Z AUTO 20007KT 10SM BKN085 06/03 A3016 RMK AO2
SLP152 T00610028





000
SAUS45 KABQ 191254
MTRTCS
METAR KTCS 191253Z AUTO 33008KT 10SM FEW050 BKN095 OVC110 12/09
A3009 RMK AO2 LTG DSNT N AND NE RAE53 TSB01E22 SLP129 P0008
T01170089





000
SAUS45 KABQ 191253
MTRABQ
METAR KABQ 191252Z 14005KT 10SM FEW080 SCT130 09/04 A3012 RMK AO2
SLP142 T00940039





000
SAUS45 KABQ 191230
MTRTCS
SPECI KTCS 191228Z AUTO 34006KT 8SM -RA BKN055 OVC070 11/08 A3010
RMK AO2 LTG DSNT N TSB01E22 P0007 T01110078





000
SAUS45 KABQ 191202
MTRTCS
SPECI KTCS 191201Z AUTO 22011KT 6SM TSRA BKN055 OVC075 13/07 A3011
RMK AO2 TSB01 PRESRR P0001 T01280067





000
SAUS45 KABQ 191158 COR
MTRCQC
METAR KCQC 191153Z AUTO 26004KT 10SM CLR 06/02 A3014 RMK AO2 SLP139
60002 70002 T00560022 10122 20056 53001





000
SAUS45 KABQ 191156 COR
MTRCQC
METAR KCQC 191153Z AUTO 26004KT 10SM CLR 06/02 A3014 RMK AO2 SLP139
60002 70002 T00560022 10122 20056 53001





000
SAUS45 KABQ 191155 COR
MTRCQC
METAR KCQC 191153Z AUTO 26004KT 10SM CLR 06/02 A3014 RMK AO2 SLP139
60002 70002 T00560022 10122 20056 53001





000
SAUS45 KABQ 191154
MTRRTN
METAR KRTN 191153Z AUTO 35007KT 10SM FEW085 06/03 A3007 RMK AO2
SLP119 T00560033 10111 20044 50000





000
SAUS45 KABQ 191154
MTRTCS
METAR KTCS 191153Z AUTO 22010KT 10SM -RA SCT060 BKN075 OVC090 14/04
A3008 RMK AO2 RAB49 PRESRR SLP118 P0000 60000 T01440044 10183 20144
53017





000
SAUS45 KABQ 191154
MTRCQC
METAR KCQC 191153Z AUTO 26004KT 10SM CLR 06/02 A3014 RMK AO2 SLP139
60002 70002 T00560022 10122 20056 53001





000
SAUS45 KABQ 191153
MTRABQ
METAR KABQ 191152Z 00000KT 10SM FEW085 FEW110 SCT170 12/04 A3010 RMK
AO2 SLP127 60000 T01220039 10156 20111 53004





000
SAUS45 KABQ 191054
MTRCQC
METAR KCQC 191053Z AUTO 22006KT 10SM CLR 07/02 A3014 RMK AO2 SLP129
T00670022





000
SAUS45 KABQ 191054
MTRRTN
METAR KRTN 191053Z AUTO 05004KT 10SM BKN110 07/03 A3007 RMK AO2
SLP114 T00670033





000
SAUS45 KABQ 191054
MTRTCS
METAR KTCS 191053Z AUTO 02008KT 10SM SCT100 OVC120 15/04 A3003 RMK
AO2 SLP097 T01500044





000
SAUS45 KABQ 191053
MTRABQ
METAR KABQ 191052Z 10003KT 10SM FEW055 FEW085 SCT110 SCT170 12/04
A3009 RMK AO2 SLP124 T01170039





000
SAUS45 KABQ 190954
MTRCQC
METAR KCQC 190953Z AUTO 00000KT 10SM CLR 06/03 A3013 RMK AO2 SLP136
T00560028





000
SAUS45 KABQ 190954
MTRRTN
METAR KRTN 190953Z AUTO 36005KT 10SM CLR 06/03 A3007 RMK AO2 SLP114
T00610033





000
SAUS45 KABQ 190954
MTRTCS
METAR KTCS 190953Z AUTO 02007KT 10SM BKN110 15/04 A3002 RMK AO2
SLP096 T01500044





000
SAUS45 KABQ 190953
MTRABQ
METAR KABQ 190952Z 09005KT 10SM FEW055 FEW085 SCT110 OVC170 13/04
A3009 RMK AO2 SLP121 T01280044





000
SAUS45 KABQ 190855
MTRTCS
METAR KTCS 190853Z AUTO 34007KT 10SM CLR 14/03 A3002 RMK AO2 SLP098
T01440028 56014





000
SAUS45 KABQ 190854
MTRCQC
METAR KCQC 190853Z AUTO 30006KT 10SM CLR 06/04 A3014 RMK AO2 RAE15
SLP135 P0001 60002 T00560039 58012





000
SAUS45 KABQ 190854
MTRRTN
METAR KRTN 190853Z AUTO 00000KT 10SM CLR 09/04 A3007 RMK AO2 SLP107
T00940039 58007





000
SAUS45 KABQ 190853
MTRABQ
METAR KABQ 190852Z 04003KT 10SM FEW055 FEW085 BKN110 OVC150 14/07
A3008 RMK AO2 SLP120 SHRA DSNT E MTNS OBSC E 60000 T01440067 58016





000
SAUS45 KABQ 190755
MTRTCS
METAR KTCS 190753Z AUTO 33006KT 10SM CLR 16/M01 A3004 RMK AO2 SLP103
T01561011





000
SAUS45 KABQ 190755
MTRRTN
METAR KRTN 190753Z AUTO 23005KT 10SM CLR 09/03 A3008 RMK AO2 SLP119
T00890033





000
SAUS45 KABQ 190754
MTRCQC
METAR KCQC 190753Z AUTO 31010KT 10SM -RA OVC048 08/06 A3017 RMK AO2
PRESFR SLP142 P0001 T00780056





000
SAUS45 KABQ 190753
MTRABQ
METAR KABQ 190752Z 24003KT 10SM FEW035 FEW055 BKN085 OVC150 14/06
A3012 RMK AO2 SLP137 SHRA DSNT E MTNS OBSC E T01390061





000
SAUS45 KABQ 190658 COR
MTRCQC
METAR KCQC 190653Z AUTO 25020G27KT 10SM -RA BKN060 OVC090 09/04
A3020 RMK AO2 PK WND 25033/0623 RAB42 SLP150 P0000 T00940039
402170006





000
SAUS45 KABQ 190656 COR
MTRCQC
METAR KCQC 190653Z AUTO 25020G27KT 10SM -RA BKN060 OVC090 09/04
A3020 RMK AO2 PK WND 25033/0623 RAB42 SLP150 P0000 T00940039
402170006





000
SAUS45 KABQ 190655
MTRCQC
METAR KCQC 190653Z AUTO 25020G27KT 10SM -RA BKN060 OVC090 09/04
A3020 RMK AO2 PK WND 25033/0623 RAB42 SLP150 P0000 T00940039
402170006





000
SAUS45 KABQ 190654
MTRRTN
METAR KRTN 190653Z AUTO 19007KT 10SM CLR 09/03 A3009 RMK AO2 SLP128
T00940033 402441006





000
SAUS45 KABQ 190654
MTRTCS
METAR KTCS 190653Z AUTO 36004KT 10SM FEW100 16/M02 A3005 RMK AO2
SLP108 T01561017 402560089





000
SAUS45 KABQ 190653
MTRABQ
METAR KABQ 190652Z 00000KT 10SM FEW035 SCT055 BKN100 OVC150 14/07
A3013 RMK AO2 RAE32 SLP139 VCSH N-E MTNS OBSC NE-SE P0000 T01390072
402560078





000
SAUS45 KABQ 190559 COR
MTRCQC
METAR KCQC 190553Z AUTO 25020KT 10SM FEW050 SCT060 BKN110 12/00
A3018 RMK AO2 PK WND 24030/0519 SLP143 T01220000 10194 20094 53012





000
SAUS45 KABQ 190558 COR
MTRCQC
METAR KCQC 190553Z AUTO 25020KT 10SM FEW050 SCT060 BKN110 12/00
A3018 RMK AO2 PK WND 24030/0519 SLP143 T01220000 10194 20094 53012





000
SAUS45 KABQ 190556 COR
MTRCQC
METAR KCQC 190553Z AUTO 25020KT 10SM FEW050 SCT060 BKN110 12/00
A3018 RMK AO2 PK WND 24030/0519 SLP143 T01220000 10194 20094 53012





000
SAUS45 KABQ 190555 COR
MTRCQC
METAR KCQC 190553Z AUTO 25020KT 10SM FEW050 SCT060 BKN110 12/00
A3018 RMK AO2 PK WND 24030/0519 SLP143 T01220000 10194 20094 53012





000
SAUS45 KABQ 190554
MTRTCS
METAR KTCS 190553Z AUTO 31007KT 10SM BKN110 18/M02 A3007 RMK AO2
SLP115 T01831017 10244 20178 51010





000
SAUS45 KABQ 190554
MTRRTN
METAR KRTN 190553Z AUTO 19009KT 10SM CLR 11/03 A3009 RMK AO2 SLP130
T01110033 10206 20111 51008





000
SAUS45 KABQ 190554
MTRCQC
METAR KCQC 190553Z AUTO 25020KT 10SM FEW050 SCT060 BKN110 12/00
A3018 RMK AO2 PK WND 24030/0519 SLP143 T01220000 10194 20094 53012





000
SAUS45 KABQ 190553
MTRABQ
METAR KABQ 190552Z 13004KT 10SM -RA FEW035 BKN055 OVC100 16/04 A3014
RMK AO2 PK WND 26028/0453 SLP145 MTNS OBSC NE-SE P0000 60000
T01560039 10239 20150 51026





000
SAUS45 KABQ 190454
MTRTCS
METAR KTCS 190453Z AUTO 00000KT 10SM BKN110 18/M02 A3007 RMK AO2
SLP114 T01831017





000
SAUS45 KABQ 190454
MTRCQC
METAR KCQC 190453Z AUTO 21015KT 10SM CLR 12/03 A3016 RMK AO2 SLP141
T01170028





000
SAUS45 KABQ 190454
MTRRTN
METAR KRTN 190453Z AUTO 18012KT 10SM CLR 12/02 A3008 RMK AO2 SLP127
T01220022





000
SAUS45 KABQ 190453
MTRABQ
METAR KABQ 190452Z 25025G32KT 10SM -RA FEW040 SCT070 BKN100 OVC180
17/02 A3014 RMK AO2 PK WND 25032/0452 RAB46 SLP145 MTNS OBSC NE-SE
P0000 T01670022





000
SAUS45 KABQ 190354
MTRRTN
METAR KRTN 190353Z AUTO 17014KT 10SM CLR 13/02 A3008 RMK AO2 SLP133
T01280022





000
SAUS45 KABQ 190354
MTRCQC
METAR KCQC 190353Z AUTO 18009KT 10SM CLR 10/03 A3015 RMK AO2 SLP148
T01000033





000
SAUS45 KABQ 190354
MTRTCS
METAR KTCS 190353Z AUTO 06005KT 10SM BKN110 19/M02 A3006 RMK AO2
SLP112 T01891017





000
SAUS45 KABQ 190353
MTRABQ
METAR KABQ 190352Z 24008KT 10SM BKN100 BKN180 19/M02 A3010 RMK AO2
SLP131 T01941017





000
SAUS45 KABQ 190254
MTRRTN
METAR KRTN 190253Z AUTO 17010KT 10SM CLR 14/02 A3006 RMK AO2 PK WND
18028/0154 SLP135 T01390017 53018





000
SAUS45 KABQ 190254
MTRTCS
METAR KTCS 190253Z AUTO 08003KT 10SM OVC110 19/M02 A3004 RMK AO2
SLP107 T01941022 51013





000
SAUS45 KABQ 190254
MTRCQC
METAR KCQC 190253Z AUTO 18013KT 10SM CLR 12/03 A3014 RMK AO2 SLP143
T01170033 53012





000
SAUS45 KABQ 190253
MTRABQ
METAR KABQ 190252Z 21011KT 10SM SCT120 BKN180 21/M02 A3005 RMK AO2
PK WND 19029/0208 SLP117 T02061022 53014





000
SAUS45 KABQ 190154
MTRRTN
METAR KRTN 190153Z AUTO 17020G30KT 10SM CLR 16/02 A3002 RMK AO2 PK
WND 17035/0113 SLP118 T01610017





000
SAUS45 KABQ 190154
MTRCQC
METAR KCQC 190153Z AUTO 16014KT 10SM CLR 14/03 A3012 RMK AO2 SLP148
T01390028





000
SAUS45 KABQ 190154
MTRTCS
METAR KTCS 190153Z AUTO 27014KT 10SM FEW110 21/M02 A3003 RMK AO2
SLP108 T02061022





000
SAUS45 KABQ 190153
MTRABQ
METAR KABQ 190152Z 19018KT 10SM FEW100 BKN150 BKN250 22/M06 A3001
RMK AO2 PK WND 18029/0053 SLP106 VIRGA N T02171061





000
SAUS45 KABQ 190054
MTRCQC
METAR KCQC 190053Z AUTO 18018G25KT 10SM CLR 17/M04 A3011 RMK AO2 PK
WND 20028/0034 SLP143 T01721044





000
SAUS45 KABQ 190054
MTRRTN
METAR KRTN 190053Z AUTO 17020G31KT 10SM CLR 18/02 A3000 RMK AO2 PK
WND 17031/0046 SLP111 T01830022





000
SAUS45 KABQ 190054
MTRTCS
METAR KTCS 190053Z AUTO 24014G20KT 10SM BKN110 22/M03 A3001 RMK AO2
PK WND 17035/2356 WSHFT 0014 SLP107 T02221033





000
SAUS45 KABQ 190053
MTRABQ
METAR KABQ 190052Z 18022G29KT 10SM SCT100 BKN150 BKN250 23/M07 A3000
RMK AO2 PK WND 19031/0010 SLP101 VIRGA N-E T02281067





000
SAUS45 KABQ 190035
MTRTCS
SPECI KTCS 190034Z AUTO 24020G27KT 10SM OVC100 23/M04 A3000 RMK AO2
PK WND 17035/2356 WSHFT 0014 T02281039





000
SAUS45 KABQ 182354
MTRRTN
METAR KRTN 182353Z AUTO 17023G30KT 10SM CLR 21/00 A3000 RMK AO2 PK
WND 17030/2259 SLP109 T02060000 10244 20144 55014





000
SAUS45 KABQ 182354
MTRCQC
METAR KCQC 182353Z AUTO 23021G27KT 10SM FEW110 20/M08 A3010 RMK AO2
PK WND 21028/2342 SLP133 T02001083 10217 20172 56009





000
SAUS45 KABQ 182354
MTRTCS
METAR KTCS 182353Z AUTO 21012G22KT 10SM BKN110 24/M04 A2999 RMK AO2
SLP094 T02441039 10256 20200 56016





000
SAUS45 KABQ 182353
MTRABQ
METAR KABQ 182352Z 18020G30KT 10SM FEW120 SCT160 BKN250 24/M06 A3000
RMK AO2 PK WND 17030/2319 SLP100 T02391056 10256 20183 56018





000
SAUS45 KABQ 182258 COR
MTRCQC
METAR KCQC 182253Z AUTO 22019G26KT 10SM FEW110 22/M08 A3010 RMK AO2
PK WND 21031/2237 SLP125 T02171083





000
SAUS45 KABQ 182256 COR
MTRCQC
METAR KCQC 182253Z AUTO 22019G26KT 10SM FEW110 22/M08 A3010 RMK AO2
PK WND 21031/2237 SLP125 T02171083





000
SAUS45 KABQ 182255 COR
MTRCQC
METAR KCQC 182253Z AUTO 22019G26KT 10SM FEW110 22/M08 A3010 RMK AO2
PK WND 21031/2237 SLP125 T02171083





000
SAUS45 KABQ 182254
MTRTCS
METAR KTCS 182253Z AUTO 18017G22KT 10SM CLR 25/M02 A3000 RMK AO2 PK
WND 18027/2219 SLP097 T02501022





000
SAUS45 KABQ 182254
MTRRTN
METAR KRTN 182253Z AUTO 18021G28KT 10SM CLR 23/M01 A3000 RMK AO2 PK
WND 18030/2206 SLP102 T02281006





000
SAUS45 KABQ 182254
MTRCQC
METAR KCQC 182253Z AUTO 22019G26KT 10SM FEW110 22/M08 A3010 RMK AO2
PK WND 21031/2237 SLP125 T02171083





000
SAUS45 KABQ 182253
MTRABQ
METAR KABQ 182252Z 20014G21KT 10SM SCT120 BKN250 26/M06 A3000 RMK
AO2 SLP097 T02561056





000
SAUS45 KABQ 182158 COR
MTRCQC
METAR KCQC 182153Z AUTO 23022G27KT 10SM FEW100 20/M08 A3011 RMK AO2
PK WND 20028/2130 SLP136 T02001078





000
SAUS45 KABQ 182156 COR
MTRCQC
METAR KCQC 182153Z AUTO 23022G27KT 10SM FEW100 20/M08 A3011 RMK AO2
PK WND 20028/2130 SLP136 T02001078





000
SAUS45 KABQ 182155 COR
MTRCQC
METAR KCQC 182153Z AUTO 23022G27KT 10SM FEW100 20/M08 A3011 RMK AO2
PK WND 20028/2130 SLP136 T02001078





000
SAUS45 KABQ 182154
MTRTCS
METAR KTCS 182153Z AUTO 19015G22KT 10SM CLR 24/M02 A3003 RMK AO2
SLP106 T02441017





000
SAUS45 KABQ 182154
MTRCQC
METAR KCQC 182153Z AUTO 23022G27KT 10SM FEW100 20/M08 A3011 RMK AO2
PK WND 20028/2130 SLP136 T02001078





000
SAUS45 KABQ 182154
MTRRTN
METAR KRTN 182153Z AUTO 22015G23KT 10SM CLR 24/M04 A3002 RMK AO2
SLP106 T02391044





000
SAUS45 KABQ 182153
MTRABQ
METAR KABQ 182152Z 19018G26KT 10SM FEW110 BKN250 25/M08 A3002 RMK
AO2 PK WND 19026/2150 SLP105 T02501078





000
SAUS45 KABQ 182055
MTRTCS
METAR KTCS 182053Z AUTO 17011G17KT 10SM CLR 24/M02 A3005 RMK AO2
SLP112 T02441022 58022





000
SAUS45 KABQ 182054
MTRRTN
METAR KRTN 182053Z AUTO 22007G16KT 10SM CLR 22/M02 A3005 RMK AO2
SLP120 T02221022 58025





000
SAUS45 KABQ 182054
MTRCQC
METAR KCQC 182053Z AUTO 22020G24KT 10SM CLR 21/M08 A3013 RMK AO2
SLP140 T02111083 58020





000
SAUS45 KABQ 182053
MTRABQ
METAR KABQ 182052Z 19007KT 10SM FEW110 BKN230 23/M04 A3006 RMK AO2
SLP121 T02331044 58026





000
SAUS45 KABQ 181954
MTRTCS
METAR KTCS 181953Z AUTO VRB06G16KT 10SM CLR 23/M02 A3008 RMK AO2
SLP120 T02281022





000
SAUS45 KABQ 181954
MTRCQC
METAR KCQC 181953Z AUTO 23011G19KT 200V270 10SM CLR 21/M06 A3016 RMK
AO2 SLP147 T02111061





000
SAUS45 KABQ 181954
MTRRTN
METAR KRTN 181953Z AUTO 22007KT 180V250 10SM CLR 19/M01 A3008 RMK
AO2 SLP138 T01941011





000
SAUS45 KABQ 181953
MTRABQ
METAR KABQ 181952Z 24003KT 10SM BKN230 21/M03 A3009 RMK AO2 SLP130
T02111033





000
SAUS45 KABQ 181855
MTRTCS
METAR KTCS 181853Z AUTO VRB05G15KT 10SM CLR 22/M03 A3010 RMK AO2
SLP124 T02221028





000
SAUS45 KABQ 181854
MTRRTN
METAR KRTN 181853Z AUTO VRB06KT 10SM CLR 17/01 A3011 RMK AO2 SLP154
T01720011





000
SAUS45 KABQ 181854
MTRCQC
METAR KCQC 181853Z AUTO 21012G19KT 10SM CLR 19/M04 A3019 RMK AO2
SLP160 T01941044





000
SAUS45 KABQ 181853
MTRABQ
METAR KABQ 181852Z 20008KT 10SM BKN250 21/M03 A3013 RMK AO2 SLP140
T02111033





000
SAUS45 KABQ 181754
MTRCQC
METAR KCQC 181753Z AUTO 25015KT 10SM CLR 17/M04 A3020 RMK AO2 SLP169
T01721039 10178 20006 58002





000
SAUS45 KABQ 181754
MTRRTN
METAR KRTN 181753Z AUTO 20005KT 10SM CLR 14/01 A3014 RMK AO2 SLP165
T01440006 10150 21006 58007





000
SAUS45 KABQ 181754
MTRTCS
METAR KTCS 181753Z AUTO 19007KT 10SM CLR 21/M02 A3012 RMK AO2 SLP135
T02061022 10206 20089 58005





000
SAUS45 KABQ 181753
MTRABQ
METAR KABQ 181752Z 19010KT 10SM BKN250 19/M03 A3015 RMK AO2 SLP152
T01891033 10189 20078 58010





000
SAUS45 KABQ 181654
MTRTCS
METAR KTCS 181653Z AUTO 18007KT 10SM CLR 19/M03 A3014 RMK AO2 SLP144
T01941028





000
SAUS45 KABQ 181654
MTRRTN
METAR KRTN 181653Z AUTO VRB05KT 10SM CLR 12/01 A3016 RMK AO2 SLP175
T01220006





000
SAUS45 KABQ 181654
MTRCQC
METAR KCQC 181653Z AUTO 25014KT 10SM CLR 16/M03 A3021 RMK AO2 SLP171
T01611033





000
SAUS45 KABQ 181653
MTRABQ
METAR KABQ 181652Z VRB06KT 10SM BKN300 17/M03 A3017 RMK AO2 SLP161
T01721033





000
SAUS45 KABQ 181554
MTRRTN
METAR KRTN 181553Z AUTO VRB03KT 10SM CLR 09/01 A3016 RMK AO2 SLP180
T00890011





000
SAUS45 KABQ 181554
MTRCQC
METAR KCQC 181553Z AUTO 25010KT 10SM CLR 13/M03 A3021 RMK AO2 SLP177
T01331028





000
SAUS45 KABQ 181554
MTRTCS
METAR KTCS 181553Z AUTO 00000KT 10SM CLR 18/M03 A3014 RMK AO2 SLP142
T01831033





000
SAUS45 KABQ 181552
MTRABQ
METAR KABQ 181552Z 01004KT 10SM BKN300 15/M02 A3018 RMK AO2 SLP166
T01501022





000
SAUS45 KABQ 181454
MTRRTN
METAR KRTN 181453Z AUTO 07003KT 10SM CLR 05/01 A3016 RMK AO2 SLP188
T00500011 58004





000
SAUS45 KABQ 181454
MTRCQC
METAR KCQC 181453Z AUTO 23011KT 10SM CLR 11/M02 A3021 RMK AO2 SLP180
T01111022 51004





000
SAUS45 KABQ 181454
MTRTCS
METAR KTCS 181453Z AUTO 00000KT 10SM CLR 16/M04 A3014 RMK AO2 SLP144
T01561044 51008





000
SAUS45 KABQ 181452
MTRABQ
METAR KABQ 181452Z 35003KT 10SM BKN250 12/M02 A3019 RMK AO2 SLP174
T01171022 51014





000
SAUS45 KABQ 181355
MTRTCS
METAR KTCS 181353Z AUTO 30004KT 10SM CLR 13/M06 A3014 RMK AO2 SLP146
T01331056





000
SAUS45 KABQ 181354
MTRRTN
METAR KRTN 181353Z AUTO 36003KT 10SM CLR 04/01 A3017 RMK AO2 SLP192
T00390011





000
SAUS45 KABQ 181354
MTRCQC
METAR KCQC 181353Z AUTO 16003KT 10SM CLR 05/00 A3021 RMK AO2 SLP193
T00500000





000
SAUS45 KABQ 181352
MTRABQ
METAR KABQ 181352Z 35005KT 10SM SCT250 09/M03 A3017 RMK AO2 SLP170
T00891028





000
SAUS45 KABQ 181254
MTRRTN
METAR KRTN 181253Z AUTO 35007KT 10SM CLR 01/M01 A3018 RMK AO2 SLP195
T00111011





000
SAUS45 KABQ 181254
MTRCQC
METAR KCQC 181253Z AUTO 10005KT 10SM CLR 02/M02 A3020 RMK AO2 SLP188
T00171017





000
SAUS45 KABQ 181254
MTRTCS
METAR KTCS 181253Z AUTO 31005KT 10SM CLR 09/M07 A3013 RMK AO2 SLP147
T00891067





000
SAUS45 KABQ 181252
MTRABQ
METAR KABQ 181252Z 34006KT 10SM SCT250 08/M03 A3016 RMK AO2 SLP165
T00781028





000
SAUS45 KABQ 181154
MTRTCS
METAR KTCS 181153Z AUTO 28006KT 10SM CLR 09/M06 A3011 RMK AO2 SLP138
7//// T00941061 10172 20094 51005





000
SAUS45 KABQ 181154
MTRRTN
METAR KRTN 181153Z AUTO 00000KT 10SM CLR M01/M02 A3018 RMK AO2
SLP198 T10061017 10028 21006 56002





000
SAUS45 KABQ 181154
MTRCQC
METAR KCQC 181153Z AUTO 11004KT 10SM CLR 01/M03 A3020 RMK AO2 SLP188
T00111028 10050 20006 56002





000
SAUS45 KABQ 181152
MTRABQ
METAR KABQ 181152Z 01005KT 10SM FEW060 SCT250 08/M03 A3014 RMK AO2
SLP157 T00781028 10150 20078 58003





000
SAUS45 KABQ 181054
MTRTCS
METAR KTCS 181053Z AUTO 00000KT 10SM CLR 09/M07 A3011 RMK AO2 SLP138
T00941072





000
SAUS45 KABQ 181054
MTRCQC
METAR KCQC 181053Z AUTO 10007KT 10SM CLR 02/M03 A3020 RMK AO2 SLP186
T00221028





000
SAUS45 KABQ 181054
MTRRTN
METAR KRTN 181053Z AUTO 01004KT 10SM CLR 01/M02 A3018 RMK AO2 SLP196
T00061017





000
SAUS45 KABQ 181052
MTRABQ
METAR KABQ 181052Z 35007KT 10SM FEW250 09/M03 A3014 RMK AO2 SLP158
T00891033





000
SAUS45 KABQ 180955
MTRTCS
METAR KTCS 180953Z AUTO 27003KT 10SM CLR 10/M08 A3010 RMK AO2 SLP134
T01001078





000
SAUS45 KABQ 180954
MTRRTN
METAR KRTN 180953Z AUTO 34007KT 10SM CLR 01/M01 A3018 RMK AO2 SLP203
T00061011





000
SAUS45 KABQ 180954
MTRCQC
METAR KCQC 180953Z AUTO 17007KT 10SM CLR 02/M03 A3019 RMK AO2 SLP186
T00221028





000
SAUS45 KABQ 180952
MTRABQ
METAR KABQ 180952Z 35008KT 10SM SCT250 09/M03 A3014 RMK AO2 SLP155
T00941033





000
SAUS45 KABQ 180854
MTRTCS
METAR KTCS 180853Z AUTO 28005KT 10SM CLR 11/M07 A3010 RMK AO2 SLP133
T01111067 58005





000
SAUS45 KABQ 180854
MTRRTN
METAR KRTN 180853Z AUTO 34006KT 10SM CLR 01/M01 A3019 RMK AO2 SLP204
T00061011 58007





000
SAUS45 KABQ 180854
MTRCQC
METAR KCQC 180853Z AUTO 16008KT 10SM CLR 02/M03 A3021 RMK AO2 SLP194
T00221028 58007





000
SAUS45 KABQ 180852
MTRABQ
METAR KABQ 180852Z 36008KT 10SM SCT250 10/M03 A3015 RMK AO2 SLP160
T01001028 50002





000
SAUS45 KABQ 180755
MTRTCS
METAR KTCS 180753Z AUTO 26005KT 10SM CLR 14/M05 A3011 RMK AO2 SLP133
T01391050





000
SAUS45 KABQ 180754
MTRRTN
METAR KRTN 180753Z AUTO 28005KT 10SM CLR 01/M01 A3020 RMK AO2 SLP208
T00111011





000
SAUS45 KABQ 180754
MTRCQC
METAR KCQC 180753Z AUTO 15007KT 10SM CLR 03/M03 A3023 RMK AO2 SLP204
T00281033





000
SAUS45 KABQ 180752
MTRABQ
METAR KABQ 180752Z 33005KT 10SM SCT250 12/M03 A3016 RMK AO2 SLP161
T01171033





000
SAUS45 KABQ 180654
MTRTCS
METAR KTCS 180653Z AUTO 20005KT 10SM CLR 16/M04 A3012 RMK AO2 SLP134
T01611039 402390094





000
SAUS45 KABQ 180654
MTRCQC
METAR KCQC 180653Z AUTO 14006KT 10SM CLR 04/M03 A3023 RMK AO2 SLP206
T00391033 401390000





000
SAUS45 KABQ 180654
MTRRTN
METAR KRTN 180653Z AUTO 26005KT 10SM CLR 02/M01 A3021 RMK AO2 SLP217
T00171006 401000011





000
SAUS45 KABQ 180653
MTRABQ
METAR KABQ 180652Z 36008KT 10SM FEW250 14/M04 A3016 RMK AO2 SLP158
T01391039 402060083





000
SAUS45 KABQ 180554
MTRCQC
METAR KCQC 180553Z AUTO 14006KT 10SM CLR 05/M03 A3023 RMK AO2 SLP203
T00501033 10139 20050 50008





000
SAUS45 KABQ 180554
MTRTCS
METAR KTCS 180553Z AUTO 15012KT 10SM CLR 17/M04 A3011 RMK AO2 SLP132
T01671039 10239 20161 51015





000
SAUS45 KABQ 180554
MTRRTN
METAR KRTN 180553Z AUTO 25007KT 10SM CLR 03/M01 A3021 RMK AO2 SLP216
T00281006 10100 20028 51013





000
SAUS45 KABQ 180553
MTRABQ
METAR KABQ 180552Z 09014KT 10SM FEW250 14/M04 A3014 RMK AO2 SLP154
T01391039 10206 20139 51010





000
SAUS45 KABQ 180454
MTRRTN
METAR KRTN 180453Z AUTO 23006KT 10SM CLR 04/00 A3020 RMK AO2 SLP208
T00390000





000
SAUS45 KABQ 180454
MTRCQC
METAR KCQC 180453Z AUTO 14007KT 10SM CLR 06/M03 A3024 RMK AO2 SLP211
T00561033





000
SAUS45 KABQ 180454
MTRTCS
METAR KTCS 180453Z AUTO 14006KT 10SM CLR 16/M07 A3010 RMK AO2 SLP135
T01611067





000
SAUS45 KABQ 180453
MTRABQ
METAR KABQ 180452Z 09018KT 10SM CLR 14/M04 A3014 RMK AO2 SLP157
T01441039





000
SAUS45 KABQ 180354
MTRRTN
METAR KRTN 180353Z AUTO 21006KT 10SM CLR 06/01 A3020 RMK AO2 SLP205
T00560006





000
SAUS45 KABQ 180354
MTRTCS
METAR KTCS 180353Z AUTO 13006KT 10SM CLR 17/M06 A3009 RMK AO2 SLP131
T01671061





000
SAUS45 KABQ 180354
MTRCQC
METAR KCQC 180353Z AUTO 13008KT 10SM CLR 06/M03 A3023 RMK AO2 SLP207
T00611033





000
SAUS45 KABQ 180353
MTRABQ
METAR KABQ 180352Z 09014KT 10SM CLR 16/M04 A3013 RMK AO2 SLP152
T01561039





000
SAUS45 KABQ 180254
MTRRTN
METAR KRTN 180253Z AUTO 16004KT 10SM CLR 07/02 A3017 RMK AO2 SLP194
T00670017 53001





000
SAUS45 KABQ 180254
MTRCQC
METAR KCQC 180253Z AUTO 13008KT 10SM CLR 07/M03 A3020 RMK AO2 SLP199
T00721033 53008





000
SAUS45 KABQ 180254
MTRTCS
METAR KTCS 180253Z AUTO 14007KT 10SM CLR 19/M05 A3006 RMK AO2 SLP121
T01941050 53010





000
SAUS45 KABQ 180253
MTRABQ
METAR KABQ 180252Z 10010KT 10SM CLR 16/M06 A3011 RMK AO2 SLP148
T01561056 53007





000
SAUS45 KABQ 180155
MTRTCS
METAR KTCS 180153Z AUTO 11005KT 10SM CLR 20/M06 A3003 RMK AO2 SLP112
T02001061





000
SAUS45 KABQ 180154
MTRCQC
METAR KCQC 180153Z AUTO 15010KT 10SM CLR 09/M03 A3019 RMK AO2 SLP194
T00941033





000
SAUS45 KABQ 180154
MTRRTN
METAR KRTN 180153Z AUTO 30005KT 10SM CLR 07/02 A3015 RMK AO2 SLP189
T00670022





000
SAUS45 KABQ 180153
MTRABQ
METAR KABQ 180152Z 13004KT 10SM FEW080 FEW250 18/M07 A3009 RMK AO2
SLP139 T01831067





000
SAUS45 KABQ 180055
MTRCQC
METAR KCQC 180053Z AUTO 15009KT 10SM CLR 12/M04 A3018 RMK AO2 SLP186
T01221039





000
SAUS45 KABQ 180054
MTRRTN
METAR KRTN 180053Z AUTO 24006KT 10SM CLR 09/02 A3015 RMK AO2 SLP182
T00940022





000
SAUS45 KABQ 180054
MTRTCS
METAR KTCS 180053Z AUTO 11006KT 10SM CLR 23/M06 A3002 RMK AO2 SLP106
T02331061





000
SAUS45 KABQ 180053
MTRABQ
METAR KABQ 180052Z 13008KT 10SM FEW080 20/M07 A3007 RMK AO2 SLP133
T02001067





000
SAUS45 KABQ 172357 COR
MTRCQC
METAR KCQC 172353Z AUTO 17009G16KT 10SM CLR 13/M03 A3018 RMK AO2
SLP180 T01331033 10139 20072 56008





000
SAUS45 KABQ 172356 COR
MTRCQC
METAR KCQC 172353Z AUTO 17009G16KT 10SM CLR 13/M03 A3018 RMK AO2
SLP180 T01331033 10139 20072 56008





000
SAUS45 KABQ 172355 COR
MTRCQC
METAR KCQC 172353Z AUTO 17009G16KT 10SM CLR 13/M03 A3018 RMK AO2
SLP180 T01331033 10139 20072 56008





000
SAUS45 KABQ 172354
MTRTCS
METAR KTCS 172353Z AUTO 00000KT 10SM CLR 24/M06 A3003 RMK AO2 SLP106
T02391061 10239 20189 56014





000
SAUS45 KABQ 172354
MTRRTN
METAR KRTN 172353Z AUTO 24009KT 10SM FEW030 10/02 A3016 RMK AO2
SLP187 T01000022 10100 20050 57007





000
SAUS45 KABQ 172354
MTRCQC
METAR KCQC 172353Z AUTO 17009G16KT 10SM CLR 13/M03 A3018 RMK AO2
SLP180 T01331033 10139 20072 56008





000
SAUS45 KABQ 172353
MTRABQ
METAR KABQ 172352Z 18006KT 10SM FEW080 FEW250 20/M06 A3008 RMK AO2
SLP135 T02001056 10206 20156 56013





000
SAUS45 KABQ 172254
MTRTCS
METAR KTCS 172253Z AUTO 14005KT 10SM CLR 24/M06 A3004 RMK AO2 SLP106
T02391061





000
SAUS45 KABQ 172254
MTRCQC
METAR KCQC 172253Z AUTO 17007KT 10SM CLR 13/M03 A3018 RMK AO2 SLP177
T01331028





000
SAUS45 KABQ 172254
MTRRTN
METAR KRTN 172253Z AUTO 25008KT 10SM CLR 10/02 A3017 RMK AO2 SLP191
T01000017





000
SAUS45 KABQ 172253
MTRABQ
METAR KABQ 172252Z 16009G15KT 10SM FEW080 FEW250 20/M06 A3009 RMK
AO2 SLP136 T02001056





000
SAUS45 KABQ 172212
MTRRTN
SPECI KRTN 172211Z AUTO 23007KT 10SM BKN031 09/02 A3018 RMK AO2
T00940017





000
SAUS45 KABQ 172154
MTRTCS
METAR KTCS 172153Z AUTO VRB05KT 10SM CLR 23/M05 A3005 RMK AO2 SLP111
T02331050





000
SAUS45 KABQ 172154
MTRRTN
METAR KRTN 172153Z AUTO 21009KT 10SM OVC027 08/01 A3018 RMK AO2
SLP199 T00780011





000
SAUS45 KABQ 172154
MTRCQC
METAR KCQC 172153Z AUTO VRB05KT 10SM CLR 12/M03 A3019 RMK AO2 SLP180
T01221028





000
SAUS45 KABQ 172153
MTRABQ
METAR KABQ 172152Z 02004KT 10SM FEW060 FEW250 BKN300 20/M05 A3011
RMK AO2 SLP140 T02001050





000
SAUS45 KABQ 172121
MTRRTN
SPECI KRTN 172120Z AUTO 20008KT 10SM BKN026 OVC032 08/02 A3018 RMK
AO2 T00830017





000
SAUS45 KABQ 172054
MTRRTN
METAR KRTN 172053Z AUTO 25008KT 220V290 10SM SCT026 BKN032 08/02
A3019 RMK AO2 SLP202 T00830017 56008





000
SAUS45 KABQ 172054
MTRTCS
METAR KTCS 172053Z AUTO VRB05KT 10SM CLR 22/M04 A3007 RMK AO2 SLP121
T02221044 58012





000
SAUS45 KABQ 172054
MTRCQC
METAR KCQC 172053Z AUTO VRB03KT 10SM FEW043 11/M02 A3021 RMK AO2
SLP190 T01061022 57003





000
SAUS45 KABQ 172053
MTRABQ
METAR KABQ 172052Z 14007KT 10SM FEW060 FEW250 OVC300 19/M04 A3013
RMK AO2 SLP147 T01891044 56011





000
SAUS45 KABQ 172038
MTRRTN
SPECI KRTN 172036Z AUTO 26008KT 10SM SCT026 BKN031 08/02 A3020 RMK
AO2 T00830017





000
SAUS45 KABQ 172030
MTRRTN
SPECI KRTN 172029Z AUTO 26010KT 10SM BKN025 BKN031 09/02 A3020 RMK
AO2 T00940022





000
SAUS45 KABQ 172008
MTRRTN
SPECI KRTN 172007Z AUTO 26008KT 10SM SCT022 OVC031 08/02 A3020 RMK
AO2 T00780017





000
SAUS45 KABQ 171954
MTRTCS
METAR KTCS 171953Z AUTO 06009G14KT 030V090 10SM CLR 22/M04 A3009 RMK
AO2 SLP125 T02171044





000
SAUS45 KABQ 171954
MTRRTN
METAR KRTN 171953Z AUTO 24011KT 10SM SCT022 OVC029 07/02 A3021 RMK
AO2 SLP210 T00720017





000
SAUS45 KABQ 171954
MTRCQC
METAR KCQC 171953Z AUTO 13005KT 10SM CLR 09/M02 A3021 RMK AO2 SLP189
T00941017





000
SAUS45 KABQ 171953
MTRABQ
METAR KABQ 171952Z VRB03KT 10SM FEW050 SCT250 BKN300 18/M04 A3014
RMK AO2 SLP151 T01781044





000
SAUS45 KABQ 171854
MTRCQC
METAR KCQC 171853Z AUTO VRB05KT 10SM CLR 08/M02 A3021 RMK AO2 SLP189
T00831017





000
SAUS45 KABQ 171854
MTRTCS
METAR KTCS 171853Z AUTO 10SM CLR 20/M04 A3010 RMK AO2 SLP129
T02001039





000
SAUS45 KABQ 171854
MTRRTN
METAR KRTN 171853Z AUTO 21008KT 10SM OVC019 06/01 A3022 RMK AO2
SLP218 T00560006





000
SAUS45 KABQ 171853
MTRABQ
METAR KABQ 171852Z 00000KT 10SM FEW050 FEW250 OVC300 17/M06 A3015
RMK AO2 SLP155 T01671056





000
SAUS45 KABQ 171754
MTRTCS
METAR KTCS 171753Z AUTO 07012G17KT 10SM CLR 19/M03 A3011 RMK AO2
SLP131 6//// T01941033 10194 20094 50008





000
SAUS45 KABQ 171754
MTRRTN
METAR KRTN 171753Z AUTO 20008KT 10SM BKN018 OVC023 05/01 A3023 RMK
AO2 SLP222 T00500011 10050 20022 50003





000
SAUS45 KABQ 171754
MTRCQC
METAR KCQC 171753Z AUTO VRB04KT 10SM BKN030 08/M02 A3022 RMK AO2
SLP191 T00781017 10083 20000 50008





000
SAUS45 KABQ 171753
MTRABQ
METAR KABQ 171752Z 33005KT 10SM FEW050 BKN300 16/M03 A3016 RMK AO2
SLP160 T01611028 10161 20083 50006





000
SAUS45 KABQ 171708
MTRCQC
SPECI KCQC 171707Z AUTO 06010KT 10SM SCT024 07/M02 A3022 RMK AO2
T00721017





000
SAUS45 KABQ 171654
MTRCQC
METAR KCQC 171653Z AUTO 11008G15KT 10SM BKN024 BKN028 05/M02 A3022
RMK AO2 SLP198 T00501022





000
SAUS45 KABQ 171654
MTRTCS
METAR KTCS 171653Z AUTO 02010G17KT 10SM CLR 17/M04 A3012 RMK AO2
SLP136 T01721039





000
SAUS45 KABQ 171654
MTRRTN
METAR KRTN 171653Z AUTO 21007KT 10SM BKN018 OVC025 04/01 A3023 RMK
AO2 SLP223 T00440011





000
SAUS45 KABQ 171653
MTRABQ
METAR KABQ 171652Z 16003KT 10SM FEW045 BKN300 13/M02 A3017 RMK AO2
SLP166 T01331022





    US Dept of Commerce
    National Oceanic and Atmospheric Administration
    National Weather Service
    1325 East West Highway
    Silver Spring, MD 20910
    Page Author: NWS Internet Services Team
Disclaimer
Information Quality
Credits
Glossary
Privacy Policy
Freedom of Information Act (FOIA)
About Us
Career Opportunities